Latest Weather Observations for Leonora Airport

IDW60801

Issued at 6:03 am WST Tuesday 6 December 2022 (issued every 10 minutes, with the page automatically refreshed every 10 minutes)

About weather observations | Map of weather stations | Latest weather observations for WA | Other Formats
Station Details ID: 012241 Name: LEONORA AERO Lat: -28.88 Lon: 121.32 Height: 370.0 m
Data from the previous 72 hours. | See also: Recent months at Leonora Airport
Date/Time
WST
Temp
°C
App
Temp
°C
Dew
Point
°C
Rel
Hum
%
Delta-T
°C
Wind Press
QNH
hPa
Press
MSL
hPa
Rain since
9am
mm
Dir  Spd
km/h
Gust
km/h
Spd
kts
Gust
kts
06/06:00am 21.2 17.7 12.1 56 5.2 SE 22 33 12 18 1008.7 1006.3 0.0
06/05:30am 21.5 18.4 12.1 55 5.4 SE 20 28 11 15 1008.5 1006.0 0.0
06/05:00am 21.5 18.0 12.1 55 5.4 SE 22 32 12 17 1007.9 1005.4 0.0
06/04:30am 22.5 19.0 12.2 52 5.9 SSE 22 30 12 16 1007.6 1005.1 0.0
06/04:00am 22.9 19.7 11.9 50 6.3 SSE 20 26 11 14 1007.3 1004.8 0.0
06/03:30am 23.4 20.4 11.8 48 6.7 SSE 19 35 10 19 1007.1 1004.6 0.0
06/03:00am 24.1 20.0 11.4 45 7.3 S 24 35 13 19 1006.5 1004.1 0.0
06/02:30am 26.7 23.9 10.0 35 9.4 SSE 15 22 8 12 1006.9 1004.4 0.0
06/02:00am 27.3 24.8 9.6 33 10.0 SSE 13 20 7 11 1006.7 1004.3 0.0
06/01:30am 27.6 25.4 9.4 32 10.2 SSE 11 15 6 8 1006.4 1004.0 0.0
06/01:00am 28.2 26.0 9.5 31 10.6 SSE 11 17 6 9 1006.5 1004.1 0.0
06/12:30am 28.9 26.0 9.6 30 11.0 SSE 15 20 8 11 1006.6 1004.2 0.0
06/12:00am 29.3 27.1 9.4 29 11.3 SE 11 17 6 9 1006.7 1004.3 0.0
 
Date/Time
WST
Temp
°C
App
Temp
°C
Dew
Point
°C
Rel
Hum
%
Delta-T
°C
Wind Press
QNH
hPa
Press
MSL
hPa
Rain since
9am
mm
Dir  Spd
km/h
Gust
km/h
Spd
kts
Gust
kts
05/11:30pm 29.9 26.6 9.4 28 11.7 SE 17 24 9 13 1007.1 1004.6 0.0
05/11:00pm 30.4 27.5 9.8 28 11.8 SE 15 20 8 11 1007.3 1004.8 0.0
05/10:30pm 30.9 27.6 9.7 27 12.2 SE 17 24 9 13 1007.3 1004.8 0.0
05/10:00pm 31.7 27.8 9.3 25 12.9 SE 20 30 11 16 1007.2 1004.7 0.0
05/09:30pm 32.4 28.4 9.2 24 13.3 SE 20 30 11 16 1007.1 1004.6 0.0
05/09:00pm 33.3 28.9 -2.4 10 17.1 SSW 11 17 6 9 1007.0 1004.5 0.0
05/08:30pm 34.3 29.8 -3.1 9 17.8 SW 11 15 6 8 1006.3 1003.9 0.0
05/08:00pm 35.7 31.2 -3.6 8 18.8 WSW 11 15 6 8 1006.1 1003.6 0.0
05/07:30pm 37.0 31.0 -2.7 8 19.3 WSW 19 28 10 15 1005.7 1003.2 0.0
05/07:00pm 37.9 31.2 -3.8 7 20.2 W 22 28 12 15 1005.2 1002.7 0.0
05/06:33pm 38.6 30.9 -3.3 7 20.4 W 28 46 15 25 1004.8 1002.3 0.0
05/06:30pm 38.7 30.6 -3.2 7 20.5 W 30 46 16 25 1004.8 1002.3 0.0
05/06:00pm 39.7 31.7 -2.5 7 21.1 W 30 41 16 22 1004.4 1001.9 0.0
05/05:52pm 39.8 32.2 -2.4 7 21.0 WSW 28 46 15 25 1004.3 1001.8 0.0
05/05:30pm 40.4 31.1 -2.0 7 21.3 W 37 54 20 29 1004.1 1001.6 0.0
05/05:03pm 40.5 31.9 -4.0 6 21.7 W 32 50 17 27 1003.8 1001.4 0.0
05/05:00pm 40.7 31.9 -3.9 6 21.9 W 33 50 18 27 1003.8 1001.4 0.0
05/04:30pm 41.2 30.6 -3.5 6 22.1 W 43 61 23 33 1003.8 1001.4 0.0
05/04:21pm 41.3 32.6 -3.4 6 22.1 W 33 54 18 29 1003.7 1001.2 0.0
05/04:00pm 41.2 32.7 -3.5 6 22.2 W 32 44 17 24 1003.7 1001.2 0.0
05/03:30pm 41.4 32.7 -3.4 6 22.2 W 33 57 18 31 1003.9 1001.5 0.0
05/03:00pm 41.9 32.1 -3.0 6 22.5 W 39 59 21 32 1004.1 1001.6 0.0
05/02:30pm 41.6 31.8 -3.2 6 22.3 W 39 59 21 32 1004.3 1001.8 0.0
05/02:20pm 41.2 32.9 -1.4 7 21.7 WNW 32 50 17 27 1004.4 1001.9 0.0
05/02:00pm 41.4 31.8 -1.3 7 21.9 WNW 39 57 21 31 1004.7 1002.2 0.0
05/01:54pm 42.2 33.8 -0.7 7 22.2 WNW 33 57 18 31 1004.7 1002.2 0.0
05/01:41pm 40.8 33.1 0.1 8 21.2 W 30 48 16 26 1004.8 1002.3 0.0
05/01:30pm 40.9 32.9 0.2 8 21.2 WNW 32 44 17 24 1005.1 1002.6 0.0
05/01:00pm 41.2 33.4 2.0 9 21.1 WNW 32 54 17 29 1005.4 1002.9 0.0
05/12:30pm 40.8 33.4 1.7 9 20.8 WNW 30 52 16 28 1005.9 1003.4 0.0
05/12:29pm 41.0 34.0 1.9 9 20.9 WNW 28 50 15 27 1005.9 1003.4 0.0
05/12:00pm 40.2 35.3 4.1 11 19.9 WNW 19 35 10 19 1006.6 1004.2 0.0
05/11:38am 39.5 35.0 6.0 13 18.9 WNW 19 43 10 23 1007.2 1004.7 0.0
05/11:30am 37.8 36.2 8.6 17 17.0 W 7 13 4 7 1007.2 1004.7 0.0
05/11:00am 37.0 35.0 8.8 18 16.4 W 9 30 5 16 1008.0 1005.5 0.0
05/10:30am 35.6 33.0 9.2 20 15.4 W 13 20 7 11 1008.7 1006.3 0.0
05/10:00am 34.0 32.3 9.9 23 14.1 NE 9 15 5 8 1009.2 1006.8 0.0
05/09:30am 32.1 30.9 10.2 26 12.7 ENE 7 19 4 10 1009.5 1007.1 0.0
05/09:00am 30.4 28.1 10.4 29 11.6 NE 13 20 7 11 1009.8 1007.3 0.0
05/08:30am 29.2 26.2 10.8 32 10.7 NE 17 24 9 13 1009.9 1007.4 0.0
05/08:00am 27.0 24.8 10.7 36 9.4 NE 13 20 7 11 1010.3 1007.8 0.0
05/07:30am 25.7 22.8 11.1 40 8.4 ENE 17 24 9 13 1010.6 1008.1 0.0
05/07:00am 24.1 20.7 11.4 45 7.3 ENE 20 28 11 15 1010.4 1007.9 0.0
05/06:30am 22.4 19.2 11.2 49 6.3 E 19 28 10 15 1010.4 1007.9 0.0
05/06:00am 21.9 19.2 11.6 52 5.9 E 17 22 9 12 1010.6 1008.1 0.0
05/05:30am 21.1 17.9 11.4 54 5.5 ESE 19 26 10 14 1010.3 1007.8 0.0
05/05:00am 20.7 17.9 11.3 55 5.3 ESE 17 22 9 12 1010.3 1007.8 0.0
05/04:30am 20.8 18.0 11.4 55 5.3 ESE 17 26 9 14 1010.2 1007.7 0.0
05/04:00am 20.9 17.8 11.5 55 5.3 ESE 19 28 10 15 1010.0 1007.5 0.0
05/03:30am 21.3 17.5 11.3 53 5.6 E 22 30 12 16 1009.8 1007.3 0.0
05/03:00am 21.6 18.5 11.6 53 5.7 ESE 19 26 10 14 1010.0 1007.5 0.0
05/02:30am 22.2 19.1 11.6 51 6.0 ESE 19 26 10 14 1010.3 1007.8 0.0
05/02:00am 22.7 19.3 11.4 49 6.4 ESE 20 26 11 14 1010.4 1007.9 0.0
05/01:30am 22.9 19.5 11.3 48 6.6 ESE 20 28 11 15 1010.2 1007.7 0.0
05/01:00am 23.4 20.3 11.5 47 6.8 SE 19 26 10 14 1010.2 1007.7 0.0
05/12:30am 24.3 19.8 11.3 44 7.4 ESE 26 35 14 19 1010.2 1007.7 0.0
05/12:00am 25.2 21.0 11.0 41 8.1 ESE 24 35 13 19 1010.3 1007.8 0.0
 
Date/Time
WST
Temp
°C
App
Temp
°C
Dew
Point
°C
Rel
Hum
%
Delta-T
°C
Wind Press
QNH
hPa
Press
MSL
hPa
Rain since
9am
mm
Dir  Spd
km/h
Gust
km/h
Spd
kts
Gust
kts
04/11:30pm 26.5 20.9 10.2 36 9.2 ESE 30 43 16 23 1009.9 1007.4 0.0
04/11:00pm 29.5 23.7 8.0 26 11.9 E 28 46 15 25 1009.6 1007.2 0.0
04/10:52pm 29.7 23.8 7.6 25 12.2 ESE 28 46 15 25 1009.6 1007.2 0.0
04/10:30pm 30.0 25.0 6.6 23 12.7 ESE 22 33 12 18 1009.5 1007.1 0.0
04/10:00pm 30.7 24.8 5.9 21 13.4 E 26 35 14 19 1009.4 1007.0 0.0
04/09:30pm 31.4 26.6 5.8 20 13.8 ESE 20 28 11 15 1009.6 1007.2 0.0
04/09:00pm 32.0 28.7 6.2 20 14.1 E 13 17 7 9 1009.4 1007.0 0.0
04/08:30pm 32.5 29.3 6.7 20 14.2 E 13 19 7 10 1009.1 1006.7 0.0
04/08:00pm 32.9 29.6 6.2 19 14.7 E 13 17 7 9 1009.2 1006.8 0.0
04/07:30pm 33.2 29.8 5.7 18 15.0 E 13 17 7 9 1009.0 1006.6 0.0
04/07:00pm 33.6 30.2 6.0 18 15.2 ESE 13 22 7 12 1008.8 1006.4 0.0
04/06:30pm 34.2 30.8 5.7 17 15.6 ESE 13 17 7 9 1008.6 1006.1 0.0
04/06:00pm 34.9 31.2 6.2 17 15.9 ESE 15 20 8 11 1008.6 1006.1 0.0
04/05:30pm 35.1 31.2 5.5 16 16.2 SE 15 22 8 12 1008.4 1005.9 0.0
04/05:00pm 35.4 31.6 5.8 16 16.4 SE 15 22 8 12 1008.3 1005.8 0.0
04/04:30pm 35.5 31.7 5.8 16 16.4 ESE 15 22 8 12 1008.3 1005.8 0.0
04/04:00pm 35.0 30.9 6.3 17 16.0 SE 17 26 9 14 1008.4 1005.9 0.0
04/03:30pm 34.8 31.8 6.2 17 15.8 ESE 11 20 6 11 1008.5 1006.0 0.0
04/03:00pm 34.6 31.0 6.8 18 15.5 ESE 15 24 8 13 1008.8 1006.4 0.0
04/02:30pm 34.2 31.3 6.5 18 15.4 ESE 11 20 6 11 1009.1 1006.7 0.0
04/02:00pm 33.0 29.5 7.1 20 14.4 SSE 15 24 8 13 1009.3 1006.9 0.0
04/01:30pm 32.8 29.8 7.6 21 14.1 SE 13 22 7 12 1009.9 1007.4 0.0
04/01:00pm 31.2 27.8 7.6 23 13.1 SE 15 26 8 14 1010.3 1007.8 0.0
04/12:30pm 30.7 27.1 8.4 25 12.5 E 17 26 9 14 1010.7 1008.2 0.0
04/12:00pm 29.9 26.3 8.3 26 12.1 E 17 30 9 16 1011.0 1008.5 0.0
04/11:30am 29.1 24.8 7.7 26 11.8 ESE 20 33 11 18 1011.3 1008.9 0.0
04/11:00am 28.6 23.7 8.3 28 11.3 E 24 37 13 20 1011.5 1009.1 0.0
04/10:30am 27.3 21.6 8.2 30 10.5 ESE 28 43 15 23 1011.8 1009.4 0.0
04/10:00am 25.9 20.2 8.4 33 9.6 ESE 28 39 15 21 1012.3 1009.9 0.0
04/09:46am 25.8 20.2 8.8 34 9.4 ESE 28 46 15 25 1012.3 1009.9 0.0
04/09:30am 25.1 18.7 8.6 35 9.0 SE 32 44 17 24 1012.0 1009.6 0.0
04/09:02am 24.9 18.4 8.8 36 8.8 SE 33 52 18 28 1012.2 1009.8 0.0
04/09:00am 25.4 19.0 9.3 36 8.9 SE 33 46 18 25 1012.2 1009.8 0.0
04/08:41am 25.8 19.5 8.8 34 9.4 SE 32 50 17 27 1012.4 1010.0 0.0
04/08:30am 25.2 18.6 8.7 35 9.1 SE 33 48 18 26 1012.7 1010.2 0.0
04/08:08am 24.3 17.8 8.3 36 8.7 SE 32 50 17 27 1012.8 1010.3 0.0
04/08:00am 24.2 17.8 8.6 37 8.5 SSE 32 43 17 23 1013.0 1010.5 0.0
04/07:30am 24.1 18.1 8.5 37 8.5 SSE 30 39 16 21 1012.2 1009.8 0.0
04/07:00am 24.3 18.6 8.3 36 8.7 SE 28 39 15 21 1011.4 1009.0 0.0
04/06:30am 23.9 18.1 7.9 36 8.6 SE 28 37 15 20 1010.7 1008.2 0.0
04/06:00am 24.1 19.0 7.7 35 8.8 SE 24 33 13 18 1010.3 1007.8 0.0
04/05:30am 24.0 18.9 7.6 35 8.8 SE 24 33 13 18 1010.1 1007.6 0.0
04/05:00am 24.1 19.8 6.8 33 9.1 SE 19 28 10 15 1010.2 1007.7 0.0
04/04:30am 25.0 20.3 6.2 30 9.9 SE 20 30 11 16 1010.0 1007.5 0.0
04/04:00am 26.0 21.3 7.6 31 10.0 ESE 22 30 12 16 1009.9 1007.4 0.0
04/03:30am 26.9 21.6 8.4 31 10.2 ESE 26 37 14 20 1008.8 1006.4 0.0
04/03:00am 27.6 22.4 9.0 31 10.4 ESE 26 35 14 19 1008.6 1006.1 0.0
04/02:30am 28.3 23.9 9.1 30 10.8 ESE 22 30 12 16 1008.5 1006.0 0.0
04/02:00am 28.7 22.8 8.9 29 11.1 ESE 30 39 16 21 1007.8 1005.3 0.0
04/01:30am 29.8 25.0 8.8 27 11.8 ESE 24 39 13 21 1007.8 1005.3 0.0
04/01:00am 30.7 26.5 8.4 25 12.6 ESE 20 26 11 14 1007.7 1005.2 0.0
04/12:30am 31.9 27.4 6.9 21 13.8 ESE 20 30 11 16 1007.5 1005.0 0.0
04/12:00am 32.2 28.0 5.7 19 14.4 ESE 17 20 9 11 1007.5 1005.0 0.0
 
Date/Time
WST
Temp
°C
App
Temp
°C
Dew
Point
°C
Rel
Hum
%
Delta-T
°C
Wind Press
QNH
hPa
Press
MSL
hPa
Rain since
9am
mm
Dir  Spd
km/h
Gust
km/h
Spd
kts
Gust
kts
03/11:30pm 32.4 28.8 5.1 18 14.7 SE 13 20 7 11 1007.9 1005.4 0.0
03/11:00pm 33.1 29.1 4.8 17 15.2 SSE 15 24 8 13 1007.8 1005.3 0.0
03/10:30pm 33.6 29.7 5.2 17 15.4 S 15 28 8 15 1008.0 1005.5 0.0
03/10:00pm 34.2 28.9 4.8 16 15.9 S 22 30 12 16 1007.9 1005.4 0.0
03/09:30pm 35.6 30.7 4.0 14 17.0 S 19 26 10 14 1007.8 1005.3 0.0
03/09:00pm 36.5 31.7 2.5 12 18.0 SSE 17 24 9 13 1007.1 1004.6 0.0
03/08:30pm 36.8 32.2 1.5 11 18.3 SSE 15 20 8 11 1006.9 1004.4 0.0
03/08:00pm 36.5 33.6 1.3 11 18.3 SSE 6 7 3 4 1006.7 1004.3 0.0
03/07:30pm 37.3 34.3 0.6 10 18.9 SSW 6 7 3 4 1006.6 1004.2 0.0
03/07:00pm 37.9 34.7 1.0 10 19.2 S 7 9 4 5 1006.3 1003.9 0.0
03/06:30pm 38.7 35.0 0.2 9 19.8 S 9 13 5 7 1006.1 1003.6 0.0
03/06:00pm 39.3 35.7 0.6 9 20.2 S 9 17 5 9 1005.8 1003.3 0.0
03/05:30pm 40.1 37.3 -0.4 8 20.8 S 4 13 2 7 1005.6 1003.1 0.0
03/05:00pm 40.2 35.6 1.3 9 20.6 SSW 15 20 8 11 1005.4 1002.9 0.0
03/04:30pm 40.1 35.6 -0.4 8 20.8 WSW 13 20 7 11 1005.4 1002.9 0.0
03/04:00pm 40.2 34.4 -0.3 8 20.9 SW 20 33 11 18 1005.4 1002.9 0.0
03/03:30pm 40.2 36.1 -0.3 8 20.9 S 11 19 6 10 1005.7 1003.2 0.0
03/03:00pm 41.1 37.1 0.3 8 21.4 W 11 20 6 11 1006.0 1003.5 0.0
03/02:30pm 40.5 37.2 -0.1 8 21.0 WSW 7 20 4 11 1006.3 1003.9 0.0
03/02:00pm 39.8 36.3 1.0 9 20.4 SW 9 22 5 12 1006.6 1004.2 0.0
03/01:30pm 39.9 36.8 1.1 9 20.4 S 7 15 4 8 1007.2 1004.7 0.0
03/01:00pm 39.6 36.0 0.9 9 20.3 SSE 9 15 5 8 1007.5 1005.0 0.0
03/12:30pm 39.6 35.7 0.9 9 20.2 SSE 11 17 6 9 1007.8 1005.3 0.0
03/12:00pm 37.9 35.3 1.0 10 19.2 WNW 4 11 2 6 1008.1 1005.6 0.0
03/11:30am 38.2 34.9 -0.2 9 19.6 E 7 22 4 12 1008.2 1005.7 0.0
03/11:00am 36.7 33.4 0.1 10 18.6 E 7 11 4 6 1008.7 1006.3 0.0
03/10:30am 36.0 33.4 4.3 14 17.1 SE 7 13 4 7 1009.0 1006.6 0.0
03/10:00am 34.9 32.0 4.4 15 16.4 E 9 13 5 7 1009.2 1006.8 0.0
03/09:30am 35.1 32.4 5.5 16 16.2 SE 9 15 5 8 1009.2 1006.8 0.0
03/09:00am 33.2 30.1 5.7 18 15.0 ESE 11 17 6 9 1009.3 1006.9 0.0
03/08:30am 31.6 28.3 6.6 21 13.7 ESE 13 22 7 12 1009.6 1007.2 0.0
03/08:00am 30.6 26.7 7.1 23 12.9 ESE 17 24 9 13 1009.6 1007.2 0.0
03/07:30am 29.8 25.5 7.1 24 12.4 SE 19 24 10 13 1009.3 1006.9 0.0
03/07:00am 29.1 25.1 6.5 24 12.2 ESE 17 24 9 13 1008.9 1006.5 0.0
03/06:30am 28.1 23.6 6.2 25 11.7 ESE 19 26 10 14 1008.7 1006.3 0.0

Other formats

Comma delimited format used in spreadsheet applications
http://www.bom.gov.au/fwo/IDW60801/IDW60801.94450.axf

JavaScript Object Notation format (JSON) in row-major order
http://www.bom.gov.au/fwo/IDW60801/IDW60801.94450.json

Data quality

Most of these data are generated automatically and are frequently updated. Quality checks on data are not normally performed. It is possible for incorrect values to appear. Refer to information at About Latest Weather Observations and please check the disclaimer before using these data.